createdAt,value
2019-01-15T00:02:26.941Z,2.73
2019-01-15T00:04:59.696Z,2.40
2019-01-15T00:07:32.345Z,2.33
2019-01-15T00:10:05.927Z,2.33
2019-01-15T00:12:38.626Z,2.10
2019-01-15T00:15:11.487Z,2.70
2019-01-15T00:17:44.311Z,2.20
2019-01-15T00:20:16.992Z,2.17
2019-01-15T00:22:49.688Z,2.60
2019-01-15T00:25:22.471Z,2.33
2019-01-15T00:27:55.207Z,2.17
2019-01-15T00:30:27.950Z,2.17
2019-01-15T00:33:00.730Z,1.77
2019-01-15T00:35:33.409Z,2.10
2019-01-15T00:38:06.058Z,2.20
2019-01-15T00:40:38.746Z,2.10
2019-01-15T00:43:11.402Z,2.07
2019-01-15T00:45:44.168Z,2.03
2019-01-15T00:48:16.797Z,2.27
2019-01-15T00:50:49.546Z,2.30
2019-01-15T00:53:22.197Z,2.00
2019-01-15T00:55:54.870Z,2.00
2019-01-15T00:58:27.497Z,2.10
2019-01-15T01:01:00.265Z,2.00
2019-01-15T01:03:33.080Z,2.00
2019-01-15T01:06:05.774Z,2.10
2019-01-15T01:08:39.476Z,2.13
2019-01-15T01:11:12.158Z,1.80
2019-01-15T01:13:44.887Z,1.70
2019-01-15T01:16:17.578Z,2.20
2019-01-15T01:18:50.220Z,2.13
2019-01-15T01:21:22.919Z,2.30
2019-01-15T01:23:55.561Z,2.07
2019-01-15T01:26:28.291Z,1.90
2019-01-15T01:29:00.896Z,1.83
2019-01-15T01:31:33.635Z,2.20
2019-01-15T01:34:06.273Z,1.80
2019-01-15T01:36:38.963Z,2.20
2019-01-15T01:39:11.581Z,1.90
2019-01-15T01:41:44.280Z,2.27
2019-01-15T01:44:16.944Z,1.60
2019-01-15T01:46:49.604Z,1.70
2019-01-15T01:49:22.318Z,1.73
2019-01-15T01:51:54.999Z,1.80
2019-01-15T01:54:27.758Z,1.83
2019-01-15T01:57:00.393Z,1.90
2019-01-15T01:59:33.015Z,1.77
2019-01-15T02:02:05.756Z,2.10
2019-01-15T02:04:38.430Z,1.90
2019-01-15T02:07:11.204Z,1.80
2019-01-15T02:09:43.875Z,1.97
2019-01-15T02:12:16.511Z,1.60
2019-01-15T02:14:49.149Z,1.90
2019-01-15T02:17:21.766Z,1.87
2019-01-15T02:19:54.387Z,1.73
2019-01-15T02:22:27.028Z,1.90
2019-01-15T02:24:59.797Z,2.13
2019-01-15T02:27:32.886Z,2.10
2019-01-15T02:30:06.436Z,2.07
2019-01-15T02:32:39.167Z,2.17
2019-01-15T02:35:13.270Z,2.10
2019-01-15T02:37:46.029Z,2.00
2019-01-15T02:40:18.638Z,1.70
2019-01-15T02:42:51.284Z,1.93
2019-01-15T02:45:24.105Z,1.90
2019-01-15T02:47:56.781Z,2.10
2019-01-15T02:50:29.409Z,2.13
2019-01-15T02:53:02.041Z,2.20
2019-01-15T02:55:34.746Z,1.90
2019-01-15T02:58:07.404Z,1.73
2019-01-15T03:00:40.009Z,2.30
2019-01-15T03:03:12.690Z,2.00
2019-01-15T03:05:45.411Z,1.97
2019-01-15T03:08:18.137Z,2.40
2019-01-15T03:10:50.752Z,2.00
2019-01-15T03:13:23.479Z,2.00
2019-01-15T03:15:56.114Z,1.97
2019-01-15T03:18:28.775Z,2.10
2019-01-15T03:21:01.395Z,2.30
2019-01-15T03:23:34.091Z,1.97
2019-01-15T03:26:06.723Z,1.83
2019-01-15T03:28:39.343Z,2.03
2019-01-15T03:31:12.051Z,1.77
2019-01-15T03:33:44.701Z,2.10
2019-01-15T03:36:17.460Z,2.90
2019-01-15T03:38:50.213Z,2.53
2019-01-15T03:41:22.856Z,1.90
2019-01-15T03:43:55.505Z,2.13
2019-01-15T03:46:28.122Z,2.10
2019-01-15T03:49:00.749Z,2.30
2019-01-15T03:51:33.360Z,2.27
2019-01-15T03:54:06.028Z,2.07
2019-01-15T03:56:38.796Z,2.60
2019-01-15T03:59:11.352Z,2.50
2019-01-15T04:01:43.971Z,2.20
2019-01-15T04:04:17.549Z,2.20
2019-01-15T04:06:50.177Z,2.20
2019-01-15T04:09:23.961Z,2.20
2019-01-15T04:11:56.784Z,2.70
2019-01-15T04:14:29.493Z,2.23
2019-01-15T04:17:02.131Z,2.63
2019-01-15T04:19:34.784Z,2.40
2019-01-15T04:22:07.416Z,2.50
2019-01-15T04:24:40.016Z,2.07
2019-01-15T04:27:12.669Z,2.90
2019-01-15T04:29:45.246Z,2.70
2019-01-15T04:32:17.876Z,2.60
2019-01-15T04:34:50.584Z,2.70
2019-01-15T04:37:23.195Z,2.80
2019-01-15T04:39:55.791Z,2.60
2019-01-15T04:42:28.516Z,2.37
2019-01-15T04:45:01.111Z,3.17
2019-01-15T04:47:33.807Z,2.60
2019-01-15T04:50:07.254Z,2.20
2019-01-15T04:52:41.445Z,2.30
2019-01-15T04:55:14.233Z,2.77
2019-01-15T04:57:46.858Z,2.77
2019-01-15T05:00:19.966Z,2.97
2019-01-15T05:02:53.422Z,2.80
2019-01-15T05:05:26.059Z,2.43
2019-01-15T05:07:58.732Z,2.60
2019-01-15T05:10:31.326Z,3.03
2019-01-15T05:13:03.984Z,3.07
2019-01-15T05:15:36.603Z,2.90
2019-01-15T05:18:09.264Z,3.20
2019-01-15T05:20:41.876Z,2.97
2019-01-15T05:23:14.537Z,3.20
2019-01-15T05:25:47.120Z,3.17
2019-01-15T05:28:19.751Z,3.60
2019-01-15T05:30:52.432Z,2.97
2019-01-15T05:33:25.085Z,3.20
2019-01-15T05:35:57.686Z,3.30
2019-01-15T05:38:30.309Z,3.70
2019-01-15T05:41:02.900Z,2.90
2019-01-15T05:43:36.074Z,2.63
2019-01-15T05:46:08.811Z,2.83
2019-01-15T05:48:41.410Z,2.77
2019-01-15T05:51:29.632Z,3.10
2019-01-15T05:54:02.329Z,2.73
2019-01-15T05:56:34.937Z,3.40
2019-01-15T05:59:07.557Z,3.70
2019-01-15T06:01:41.201Z,3.27
2019-01-15T06:04:13.809Z,2.70
2019-01-15T06:06:46.406Z,2.77
2019-01-15T06:09:19.028Z,2.57
2019-01-15T06:11:51.759Z,2.40
2019-01-15T06:14:24.382Z,2.80
2019-01-15T06:16:56.966Z,2.87
2019-01-15T06:19:29.583Z,2.63
2019-01-15T06:22:02.173Z,2.87
2019-01-15T06:24:34.821Z,2.60
2019-01-15T06:27:07.421Z,2.43
2019-01-15T06:29:40.023Z,2.93
2019-01-15T06:32:12.748Z,2.70
2019-01-15T06:34:45.447Z,2.83
2019-01-15T06:37:18.016Z,3.43
2019-01-15T06:39:50.624Z,2.83
2019-01-15T06:42:23.299Z,3.23
2019-01-15T06:44:57.000Z,3.13
2019-01-15T06:47:29.582Z,3.17
2019-01-15T06:50:02.215Z,2.93
2019-01-15T06:52:35.875Z,3.40
2019-01-15T06:55:11.265Z,3.10
2019-01-15T06:57:43.871Z,3.60
2019-01-15T07:00:22.798Z,3.87
2019-01-15T07:02:55.367Z,3.90
2019-01-15T07:05:28.231Z,3.50
2019-01-15T07:08:00.787Z,3.73
2019-01-15T07:10:38.980Z,3.80
2019-01-15T07:13:11.577Z,3.60
2019-01-15T07:15:44.185Z,5.97
2019-01-15T07:18:16.810Z,6.23
2019-01-15T07:20:49.465Z,4.90
2019-01-15T07:23:22.056Z,5.60
2019-01-15T07:25:54.690Z,4.07
2019-01-15T07:28:27.264Z,3.80
2019-01-15T07:31:01.348Z,4.17
2019-01-15T07:33:33.974Z,4.33
2019-01-15T07:36:06.596Z,4.00
2019-01-15T07:38:40.311Z,4.40
2019-01-15T07:41:13.102Z,4.00
2019-01-15T07:43:45.864Z,3.80
2019-01-15T07:46:18.564Z,4.00
2019-01-15T07:48:51.188Z,4.13
2019-01-15T07:51:25.150Z,4.13
2019-01-15T07:53:57.771Z,4.07
2019-01-15T07:56:30.417Z,4.03
2019-01-15T07:59:03.164Z,4.17
2019-01-15T08:01:35.921Z,3.70
2019-01-15T08:04:08.554Z,4.10
2019-01-15T08:06:41.200Z,3.87
2019-01-15T08:09:13.862Z,4.50
2019-01-15T08:11:46.603Z,4.20
2019-01-15T08:14:19.237Z,4.30
2019-01-15T08:16:51.861Z,4.97
2019-01-15T08:19:24.589Z,8.27
2019-01-15T08:21:57.279Z,7.30
2019-01-15T08:24:29.955Z,36.67
2019-01-15T08:27:02.746Z,7.93
2019-01-15T08:29:35.399Z,5.10
2019-01-15T08:32:08.043Z,4.50
2019-01-15T08:34:40.627Z,5.63
2019-01-15T08:37:13.242Z,5.00
2019-01-15T08:39:45.923Z,3.97
2019-01-15T08:42:18.550Z,4.63
2019-01-15T08:44:51.503Z,5.03
2019-01-15T08:47:24.517Z,5.53
2019-01-15T08:49:57.182Z,4.57
2019-01-15T08:52:29.804Z,6.00
2019-01-15T08:55:02.480Z,5.97
2019-01-15T08:57:35.208Z,5.40
2019-01-15T09:00:09.029Z,6.30
2019-01-15T09:02:41.627Z,4.40
2019-01-15T09:05:14.312Z,4.43
2019-01-15T09:07:47.027Z,4.93
2019-01-15T09:10:19.816Z,5.50
2019-01-15T09:12:52.511Z,4.90
2019-01-15T09:15:25.245Z,4.47
2019-01-15T09:17:57.936Z,4.77
2019-01-15T09:20:30.578Z,4.37
2019-01-15T09:23:03.210Z,4.43
2019-01-15T09:25:35.848Z,4.57
2019-01-15T09:28:08.661Z,3.90
2019-01-15T09:30:41.307Z,4.50
2019-01-15T09:33:14.063Z,4.53
2019-01-15T09:35:46.715Z,4.80
2019-01-15T09:38:19.500Z,8.87
2019-01-15T09:40:52.222Z,4.90
2019-01-15T09:43:24.858Z,4.43
2019-01-15T09:45:57.493Z,4.90
2019-01-15T09:48:33.864Z,5.20
2019-01-15T09:51:06.593Z,4.93
2019-01-15T09:53:39.219Z,5.73
2019-01-15T09:56:11.874Z,10.23
2019-01-15T09:58:44.614Z,7.37
2019-01-15T10:01:17.293Z,5.90
2019-01-15T10:03:49.906Z,5.80
2019-01-15T10:06:22.648Z,6.47
2019-01-15T10:08:55.374Z,6.67
2019-01-15T10:11:28.016Z,5.90
2019-01-15T10:14:00.624Z,5.93
2019-01-15T10:16:33.300Z,6.07
2019-01-15T10:19:06.005Z,5.87
2019-01-15T10:21:39.859Z,7.80
2019-01-15T10:24:12.644Z,9.43
2019-01-15T10:26:46.253Z,6.50
2019-01-15T10:29:20.391Z,4.87
2019-01-15T10:33:03.769Z,5.37
2019-01-15T10:36:03.667Z,4.70
2019-01-15T10:38:36.305Z,6.17
2019-01-15T10:41:08.992Z,5.80
2019-01-15T10:43:41.706Z,6.70
2019-01-15T10:46:14.476Z,6.60
2019-01-15T10:48:47.190Z,5.40
2019-01-15T10:51:19.932Z,6.10
2019-01-15T10:53:52.731Z,5.83
2019-01-15T10:56:25.540Z,5.87
2019-01-15T10:58:58.348Z,5.70
2019-01-15T11:01:31.103Z,7.70
2019-01-15T11:04:03.839Z,5.93
2019-01-15T11:06:36.527Z,6.97
2019-01-15T11:09:10.202Z,6.50
2019-01-15T11:11:42.956Z,6.47
2019-01-15T11:14:17.882Z,8.80
2019-01-15T11:16:50.558Z,6.50
2019-01-15T11:19:23.258Z,11.37
2019-01-15T11:21:55.996Z,8.10
2019-01-15T11:24:28.717Z,13.50
2019-01-15T11:27:01.463Z,18.57
2019-01-15T11:29:34.189Z,50.40
2019-01-15T11:32:06.931Z,26.77
2019-01-15T11:34:39.645Z,38.10
2019-01-15T11:37:12.374Z,20.67
2019-01-15T11:39:45.193Z,53.27
2019-01-15T11:42:19.012Z,31.57
2019-01-15T11:44:51.661Z,21.60
2019-01-15T11:47:24.338Z,59.30
2019-01-15T11:49:56.976Z,20.23
2019-01-15T11:52:29.630Z,68.17
2019-01-15T11:55:02.264Z,42.80
2019-01-15T11:57:35.025Z,16.73
2019-01-15T12:00:14.532Z,9.17
2019-01-15T12:02:56.158Z,8.73
2019-01-15T12:05:46.551Z,7.33
2019-01-15T12:08:36.572Z,8.23
2019-01-15T12:11:30.977Z,7.30
2019-01-15T12:14:21.256Z,6.63
2019-01-15T12:17:06.903Z,8.00
2019-01-15T12:19:57.399Z,7.77
2019-01-15T12:22:51.983Z,8.80
2019-01-15T12:25:58.672Z,7.33
2019-01-15T12:28:47.255Z,10.90
2019-01-15T12:31:44.829Z,9.20
2019-01-15T12:34:35.191Z,7.90
2019-01-15T12:37:29.547Z,7.90
2019-01-15T12:40:23.176Z,10.30
2019-01-15T12:43:10.893Z,8.80
2019-01-15T12:46:08.223Z,8.80
2019-01-15T12:49:18.106Z,7.97
2019-01-15T12:52:24.902Z,8.20
2019-01-15T12:55:16.028Z,6.10
2019-01-15T12:58:07.531Z,8.77
2019-01-15T13:01:11.233Z,8.03
2019-01-15T13:04:01.678Z,8.10
2019-01-15T13:06:51.825Z,6.90
2019-01-15T13:09:41.983Z,6.23
2019-01-15T13:12:34.039Z,6.40
2019-01-15T13:15:39.805Z,6.87
2019-01-15T13:18:34.331Z,5.73
2019-01-15T13:21:31.979Z,6.07
2019-01-15T13:24:42.590Z,6.70
2019-01-15T13:27:45.703Z,5.80
2019-01-15T13:30:37.353Z,6.47
2019-01-15T13:33:36.947Z,6.10
2019-01-15T13:36:28.155Z,6.13
2019-01-15T13:39:29.087Z,7.27
2019-01-15T13:42:19.368Z,6.73
2019-01-15T13:45:23.173Z,6.90
2019-01-15T13:48:14.666Z,7.17
2019-01-15T13:50:57.676Z,5.90
2019-01-15T13:53:47.903Z,7.00
2019-01-15T13:56:51.745Z,6.33
2019-01-15T13:59:42.140Z,7.57
2019-01-15T14:02:28.592Z,5.63
2019-01-15T14:05:18.986Z,6.30
2019-01-15T14:08:09.260Z,6.70
2019-01-15T14:10:51.480Z,6.23
2019-01-15T14:13:50.871Z,5.93
2019-01-15T14:16:51.434Z,5.70
2019-01-15T14:19:46.000Z,5.97
2019-01-15T14:22:55.613Z,5.83
2019-01-15T14:25:59.296Z,5.60
2019-01-15T14:28:50.807Z,6.17
2019-01-15T14:31:41.262Z,5.97
2019-01-15T14:34:31.654Z,6.60
2019-01-15T14:37:28.993Z,7.00
2019-01-15T14:40:19.530Z,6.63
2019-01-15T14:43:21.893Z,7.00
2019-01-15T14:46:31.791Z,8.37
2019-01-15T14:49:32.497Z,6.80
2019-01-15T14:52:39.424Z,7.10
2019-01-15T14:55:23.812Z,8.57
2019-01-15T14:58:14.230Z,6.73
2019-01-15T15:01:08.533Z,8.50
2019-01-15T15:03:54.822Z,7.53
2019-01-15T15:06:39.301Z,7.53
2019-01-15T15:09:48.964Z,10.63
2019-01-15T15:12:33.889Z,7.37
2019-01-15T15:15:41.031Z,7.60
2019-01-15T15:18:29.937Z,5.67
2019-01-15T15:21:22.200Z,7.50
2019-01-15T15:24:14.336Z,6.57
2019-01-15T15:27:14.822Z,6.20
2019-01-15T15:30:06.320Z,6.87
2019-01-15T15:33:03.760Z,5.80
2019-01-15T15:35:55.289Z,7.37
2019-01-15T15:38:50.085Z,6.30
2019-01-15T15:41:40.129Z,6.20
2019-01-15T15:44:40.638Z,6.47
2019-01-15T15:47:35.166Z,6.63
2019-01-15T15:50:33.567Z,5.90
2019-01-15T15:53:26.936Z,5.83
2019-01-15T15:56:33.768Z,6.00
2019-01-15T15:59:25.210Z,6.97
2019-01-15T16:02:16.755Z,5.03
2019-01-15T16:05:14.377Z,6.70
2019-01-15T16:08:04.411Z,12.03
2019-01-15T16:10:54.861Z,6.97
2019-01-15T16:13:45.305Z,6.77
2019-01-15T16:16:35.412Z,5.60
2019-01-15T16:19:25.830Z,6.00
2019-01-15T16:22:14.444Z,6.03
2019-01-15T16:24:55.930Z,5.73
2019-01-15T16:27:46.929Z,5.33
2019-01-15T16:30:42.259Z,5.43
2019-01-15T16:33:49.205Z,5.20
2019-01-15T16:36:39.342Z,5.10
2019-01-15T16:39:31.005Z,5.30
2019-01-15T16:42:21.354Z,5.30
2019-01-15T16:45:31.091Z,6.00
2019-01-15T16:48:28.417Z,5.70
2019-01-15T16:51:22.713Z,8.17
2019-01-15T16:54:13.156Z,5.53
2019-01-15T16:57:10.522Z,4.70
2019-01-15T17:00:13.564Z,5.03
2019-01-15T17:03:17.246Z,5.27
2019-01-15T17:06:17.808Z,4.90
2019-01-15T17:09:24.310Z,5.63
2019-01-15T17:12:28.178Z,5.33
2019-01-15T17:15:29.078Z,5.67
2019-01-15T17:18:19.548Z,5.33
2019-01-15T17:21:19.997Z,5.40
2019-01-15T17:24:14.466Z,5.57
2019-01-15T17:27:04.819Z,6.30
2019-01-15T17:29:55.040Z,5.60
2019-01-15T17:32:37.357Z,6.23
2019-01-15T17:35:28.931Z,8.03
2019-01-15T17:38:32.606Z,7.03
2019-01-15T17:41:15.204Z,6.27
2019-01-15T17:44:06.778Z,6.30
2019-01-15T17:47:04.589Z,6.70
2019-01-15T17:49:55.029Z,7.00
2019-01-15T17:52:43.755Z,7.43
2019-01-15T17:55:33.882Z,8.30
2019-01-15T17:58:22.941Z,8.30
2019-01-15T18:01:14.473Z,6.80
2019-01-15T18:04:11.812Z,6.67
2019-01-15T18:07:00.678Z,6.90
2019-01-15T18:10:04.092Z,5.50
2019-01-15T18:12:53.055Z,6.60
2019-01-15T18:15:47.384Z,5.37
2019-01-15T18:18:38.024Z,4.57
2019-01-15T18:21:36.064Z,6.13
2019-01-15T18:24:26.493Z,4.83
2019-01-15T18:27:30.044Z,6.57
2019-01-15T18:30:27.663Z,6.07
2019-01-15T18:33:23.532Z,4.90
2019-01-15T18:36:15.116Z,4.70
2019-01-15T18:39:13.380Z,5.20
2019-01-15T18:42:13.987Z,5.40
2019-01-15T18:45:11.541Z,4.27
2019-01-15T18:48:12.426Z,5.10
2019-01-15T18:51:13.088Z,4.97
2019-01-15T18:54:02.020Z,5.20
2019-01-15T18:56:52.314Z,6.00
2019-01-15T18:59:50.144Z,5.47
2019-01-15T19:02:47.681Z,5.23
2019-01-15T19:05:45.499Z,4.30
2019-01-15T19:08:52.165Z,5.80
2019-01-15T19:11:42.552Z,5.37
2019-01-15T19:14:34.161Z,5.00
2019-01-15T19:17:31.641Z,5.13
2019-01-15T19:20:22.829Z,4.77
2019-01-15T19:23:22.187Z,5.27
2019-01-15T19:26:28.911Z,5.47
2019-01-15T19:29:20.299Z,5.33
2019-01-15T19:32:14.693Z,5.00
2019-01-15T19:35:11.958Z,5.87
2019-01-15T19:37:56.201Z,5.87
2019-01-15T19:40:48.843Z,5.17
2019-01-15T19:43:46.299Z,5.43
2019-01-15T19:46:36.598Z,5.20
2019-01-15T19:49:40.617Z,5.40
2019-01-15T19:52:35.299Z,5.83
2019-01-15T19:55:39.325Z,6.47
2019-01-15T19:58:46.384Z,6.47
2019-01-15T20:01:36.818Z,6.30
2019-01-15T20:04:28.463Z,5.60
2019-01-15T20:07:25.862Z,5.93
2019-01-15T20:10:14.751Z,6.13
2019-01-15T20:13:09.314Z,6.03
2019-01-15T20:16:09.903Z,6.00
2019-01-15T20:19:09.209Z,6.00
2019-01-15T20:21:58.763Z,5.97
2019-01-15T20:24:49.211Z,5.43
2019-01-15T20:27:39.530Z,6.33
2019-01-15T20:30:30.609Z,6.30
2019-01-15T20:33:35.019Z,5.73
2019-01-15T20:36:32.750Z,6.03
2019-01-15T20:39:23.184Z,5.13
2019-01-15T20:42:27.073Z,5.83
2019-01-15T20:45:14.412Z,6.07
2019-01-15T20:48:06.054Z,5.67
2019-01-15T20:51:03.545Z,5.10
2019-01-15T20:54:00.173Z,6.20
2019-01-15T20:56:50.635Z,6.70
2019-01-15T20:59:48.044Z,4.57
2019-01-15T21:02:31.116Z,5.00
2019-01-15T21:05:15.432Z,6.20
2019-01-15T21:08:07.078Z,6.13
2019-01-15T21:10:57.482Z,6.30
2019-01-15T21:14:07.469Z,4.83
2019-01-15T21:16:52.525Z,5.30
2019-01-15T21:20:02.168Z,5.43
2019-01-15T21:22:53.832Z,5.27
2019-01-15T21:25:54.655Z,4.67
2019-01-15T21:28:52.254Z,4.77
2019-01-15T21:31:53.140Z,5.37
2019-01-15T21:34:43.606Z,5.10
2019-01-15T21:37:42.128Z,5.10
2019-01-15T21:40:39.563Z,5.47
2019-01-15T21:43:29.798Z,5.20
2019-01-15T21:46:21.123Z,4.60
2019-01-15T21:49:11.300Z,4.60
2019-01-15T21:52:02.910Z,4.77
2019-01-15T21:54:54.590Z,4.43
2019-01-15T21:57:58.272Z,5.00
2019-01-15T22:00:43.265Z,5.03
2019-01-15T22:03:34.860Z,5.10
2019-01-15T22:06:30.265Z,4.57
2019-01-15T22:09:20.775Z,4.63
2019-01-15T22:12:12.397Z,4.50
2019-01-15T22:15:13.027Z,4.23
2019-01-15T22:18:04.624Z,5.00
2019-01-15T22:20:55.010Z,5.03
2019-01-15T22:23:45.342Z,5.17
2019-01-15T22:26:40.047Z,5.57
2019-01-15T22:29:30.468Z,5.83
2019-01-15T22:32:20.771Z,5.30
2019-01-15T22:35:18.527Z,5.60
2019-01-15T22:38:08.962Z,4.87
2019-01-15T22:41:10.216Z,4.50
2019-01-15T22:43:51.314Z,5.27
2019-01-15T22:46:42.964Z,4.37
2019-01-15T22:49:37.430Z,3.73
2019-01-15T22:52:34.375Z,4.30
2019-01-15T22:55:26.454Z,4.13
2019-01-15T22:58:12.304Z,4.33
2019-01-15T23:01:04.681Z,4.37
2019-01-15T23:03:56.696Z,4.27
2019-01-15T23:06:50.165Z,4.47
2019-01-15T23:09:48.438Z,4.23
2019-01-15T23:12:28.292Z,3.80
2019-01-15T23:15:31.973Z,4.10
2019-01-15T23:18:33.123Z,4.43
2019-01-15T23:21:23.418Z,4.53
2019-01-15T23:24:20.794Z,4.40
2019-01-15T23:27:15.486Z,4.70
2019-01-15T23:30:05.992Z,5.20
2019-01-15T23:33:00.808Z,4.07
2019-01-15T23:35:55.159Z,4.47
2019-01-15T23:38:55.606Z,4.03
2019-01-15T23:41:55.543Z,4.57
2019-01-15T23:44:45.930Z,4.20
2019-01-15T23:47:43.599Z,3.83
2019-01-15T23:50:47.515Z,4.40
2019-01-15T23:53:38.224Z,4.20
2019-01-15T23:56:38.901Z,3.80
2019-01-15T23:59:33.583Z,4.63
